sensor_id;sensor_type;location;lat;lon;timestamp;P1;durP1;ratioP1;P2;durP2;ratioP2
6519;SDS011;3293;51.690;5.982;2024-01-11T00:00:52;30.30;;;18.20;;
6519;SDS011;3293;51.690;5.982;2024-01-11T00:05:52;33.97;;;19.83;;
6519;SDS011;3293;51.690;5.982;2024-01-11T00:10:52;32.87;;;19.70;;
6519;SDS011;3293;51.690;5.982;2024-01-11T00:15:52;33.87;;;19.33;;
6519;SDS011;3293;51.690;5.982;2024-01-11T00:20:52;32.90;;;19.80;;
6519;SDS011;3293;51.690;5.982;2024-01-11T00:25:52;34.40;;;20.30;;
6519;SDS011;3293;51.690;5.982;2024-01-11T00:30:52;30.37;;;18.83;;
6519;SDS011;3293;51.690;5.982;2024-01-11T00:35:52;36.83;;;20.57;;
6519;SDS011;3293;51.690;5.982;2024-01-11T00:40:52;33.57;;;20.37;;
6519;SDS011;3293;51.690;5.982;2024-01-11T00:45:52;33.63;;;20.07;;
6519;SDS011;3293;51.690;5.982;2024-01-11T00:50:52;37.07;;;20.87;;
6519;SDS011;3293;51.690;5.982;2024-01-11T00:55:52;35.57;;;21.40;;
6519;SDS011;3293;51.690;5.982;2024-01-11T01:00:53;38.67;;;21.13;;
6519;SDS011;3293;51.690;5.982;2024-01-11T01:05:53;34.70;;;20.90;;
6519;SDS011;3293;51.690;5.982;2024-01-11T01:10:53;32.83;;;20.73;;
6519;SDS011;3293;51.690;5.982;2024-01-11T01:15:53;33.50;;;21.37;;
6519;SDS011;3293;51.690;5.982;2024-01-11T01:20:53;35.63;;;21.30;;
6519;SDS011;3293;51.690;5.982;2024-01-11T01:25:53;32.27;;;21.13;;
6519;SDS011;3293;51.690;5.982;2024-01-11T01:30:53;39.37;;;21.43;;
6519;SDS011;3293;51.690;5.982;2024-01-11T01:35:53;32.40;;;21.23;;
6519;SDS011;3293;51.690;5.982;2024-01-11T01:40:53;39.00;;;21.23;;
6519;SDS011;3293;51.690;5.982;2024-01-11T01:45:52;34.00;;;20.23;;
6519;SDS011;3293;51.690;5.982;2024-01-11T01:50:53;34.17;;;20.80;;
6519;SDS011;3293;51.690;5.982;2024-01-11T01:55:53;36.70;;;21.67;;
6519;SDS011;3293;51.690;5.982;2024-01-11T02:00:54;37.67;;;20.97;;
6519;SDS011;3293;51.690;5.982;2024-01-11T02:05:54;39.83;;;21.07;;
6519;SDS011;3293;51.690;5.982;2024-01-11T02:10:54;37.17;;;20.47;;
6519;SDS011;3293;51.690;5.982;2024-01-11T02:15:54;40.73;;;20.70;;
6519;SDS011;3293;51.690;5.982;2024-01-11T02:20:55;43.73;;;22.37;;
6519;SDS011;3293;51.690;5.982;2024-01-11T02:25:55;34.87;;;19.73;;
6519;SDS011;3293;51.690;5.982;2024-01-11T02:30:55;35.57;;;20.43;;
6519;SDS011;3293;51.690;5.982;2024-01-11T02:35:55;31.50;;;19.60;;
6519;SDS011;3293;51.690;5.982;2024-01-11T02:40:55;37.27;;;20.70;;
6519;SDS011;3293;51.690;5.982;2024-01-11T02:45:57;29.80;;;19.83;;
6519;SDS011;3293;51.690;5.982;2024-01-11T02:50:57;38.43;;;21.67;;
6519;SDS011;3293;51.690;5.982;2024-01-11T02:55:58;35.87;;;21.00;;
6519;SDS011;3293;51.690;5.982;2024-01-11T03:00:57;36.80;;;22.47;;
6519;SDS011;3293;51.690;5.982;2024-01-11T03:05:57;34.30;;;20.77;;
6519;SDS011;3293;51.690;5.982;2024-01-11T03:10:57;38.57;;;21.63;;
6519;SDS011;3293;51.690;5.982;2024-01-11T03:15:57;34.63;;;20.03;;
6519;SDS011;3293;51.690;5.982;2024-01-11T03:20:57;35.40;;;20.63;;
6519;SDS011;3293;51.690;5.982;2024-01-11T03:25:57;35.70;;;19.97;;
6519;SDS011;3293;51.690;5.982;2024-01-11T03:30:57;37.73;;;21.40;;
6519;SDS011;3293;51.690;5.982;2024-01-11T03:35:57;34.47;;;20.40;;
6519;SDS011;3293;51.690;5.982;2024-01-11T03:40:56;33.53;;;20.27;;
6519;SDS011;3293;51.690;5.982;2024-01-11T03:45:56;33.53;;;21.10;;
6519;SDS011;3293;51.690;5.982;2024-01-11T03:50:56;35.40;;;19.30;;
6519;SDS011;3293;51.690;5.982;2024-01-11T03:55:56;33.13;;;20.10;;
6519;SDS011;3293;51.690;5.982;2024-01-11T04:00:56;33.93;;;19.97;;
6519;SDS011;3293;51.690;5.982;2024-01-11T04:05:56;32.27;;;19.33;;
6519;SDS011;3293;51.690;5.982;2024-01-11T04:10:56;31.13;;;20.00;;
6519;SDS011;3293;51.690;5.982;2024-01-11T04:15:56;36.93;;;20.13;;
6519;SDS011;3293;51.690;5.982;2024-01-11T04:20:56;29.00;;;18.60;;
6519;SDS011;3293;51.690;5.982;2024-01-11T04:25:56;27.30;;;17.97;;
6519;SDS011;3293;51.690;5.982;2024-01-11T04:30:55;28.30;;;19.97;;
6519;SDS011;3293;51.690;5.982;2024-01-11T04:35:55;30.80;;;18.17;;
6519;SDS011;3293;51.690;5.982;2024-01-11T04:40:55;30.50;;;19.17;;
6519;SDS011;3293;51.690;5.982;2024-01-11T04:45:55;29.03;;;18.20;;
6519;SDS011;3293;51.690;5.982;2024-01-11T04:50:55;29.47;;;18.77;;
6519;SDS011;3293;51.690;5.982;2024-01-11T04:55:55;32.73;;;18.80;;
6519;SDS011;3293;51.690;5.982;2024-01-11T05:00:55;32.90;;;19.23;;
6519;SDS011;3293;51.690;5.982;2024-01-11T05:05:55;33.63;;;18.30;;
6519;SDS011;3293;51.690;5.982;2024-01-11T05:10:55;28.90;;;18.33;;
6519;SDS011;3293;51.690;5.982;2024-01-11T05:15:54;28.97;;;18.27;;
6519;SDS011;3293;51.690;5.982;2024-01-11T05:20:54;28.13;;;18.47;;
6519;SDS011;3293;51.690;5.982;2024-01-11T05:25:54;27.63;;;17.93;;
6519;SDS011;3293;51.690;5.982;2024-01-11T05:30:54;27.97;;;18.40;;
6519;SDS011;3293;51.690;5.982;2024-01-11T05:35:54;30.37;;;18.30;;
6519;SDS011;3293;51.690;5.982;2024-01-11T05:40:54;33.17;;;19.70;;
6519;SDS011;3293;51.690;5.982;2024-01-11T05:45:54;31.90;;;18.67;;
6519;SDS011;3293;51.690;5.982;2024-01-11T05:50:54;32.10;;;18.03;;
6519;SDS011;3293;51.690;5.982;2024-01-11T05:55:54;29.87;;;18.10;;
6519;SDS011;3293;51.690;5.982;2024-01-11T06:00:53;29.57;;;18.83;;
6519;SDS011;3293;51.690;5.982;2024-01-11T06:05:55;30.43;;;18.33;;
6519;SDS011;3293;51.690;5.982;2024-01-11T06:10:55;26.20;;;17.47;;
6519;SDS011;3293;51.690;5.982;2024-01-11T06:15:55;28.97;;;18.07;;
6519;SDS011;3293;51.690;5.982;2024-01-11T06:20:55;31.47;;;19.53;;
6519;SDS011;3293;51.690;5.982;2024-01-11T06:25:55;36.67;;;20.80;;
6519;SDS011;3293;51.690;5.982;2024-01-11T06:30:55;40.83;;;23.03;;
6519;SDS011;3293;51.690;5.982;2024-01-11T06:35:55;35.40;;;22.03;;
6519;SDS011;3293;51.690;5.982;2024-01-11T06:40:58;38.40;;;22.13;;
6519;SDS011;3293;51.690;5.982;2024-01-11T06:46:02;42.10;;;23.83;;
6519;SDS011;3293;51.690;5.982;2024-01-11T06:51:05;38.03;;;22.60;;
6519;SDS011;3293;51.690;5.982;2024-01-11T06:56:13;34.77;;;22.43;;
6519;SDS011;3293;51.690;5.982;2024-01-11T07:01:17;35.10;;;21.43;;
6519;SDS011;3293;51.690;5.982;2024-01-11T07:06:17;32.70;;;20.17;;
6519;SDS011;3293;51.690;5.982;2024-01-11T07:11:17;34.87;;;22.13;;
6519;SDS011;3293;51.690;5.982;2024-01-11T07:16:16;35.33;;;20.13;;
6519;SDS011;3293;51.690;5.982;2024-01-11T07:21:20;35.93;;;20.40;;
6519;SDS011;3293;51.690;5.982;2024-01-11T07:26:28;36.03;;;20.87;;
6519;SDS011;3293;51.690;5.982;2024-01-11T07:31:28;34.07;;;20.67;;
6519;SDS011;3293;51.690;5.982;2024-01-11T07:36:28;35.43;;;20.40;;
6519;SDS011;3293;51.690;5.982;2024-01-11T07:41:28;32.83;;;20.20;;
6519;SDS011;3293;51.690;5.982;2024-01-11T07:46:28;35.27;;;20.63;;
6519;SDS011;3293;51.690;5.982;2024-01-11T07:51:28;34.13;;;21.63;;
6519;SDS011;3293;51.690;5.982;2024-01-11T07:56:29;33.10;;;21.07;;
6519;SDS011;3293;51.690;5.982;2024-01-11T08:01:28;36.83;;;21.50;;
6519;SDS011;3293;51.690;5.982;2024-01-11T08:06:28;36.77;;;22.43;;
6519;SDS011;3293;51.690;5.982;2024-01-11T08:11:28;32.60;;;20.77;;
6519;SDS011;3293;51.690;5.982;2024-01-11T08:16:28;34.83;;;20.27;;
6519;SDS011;3293;51.690;5.982;2024-01-11T08:21:28;31.13;;;20.57;;
6519;SDS011;3293;51.690;5.982;2024-01-11T08:26:28;34.10;;;20.47;;
6519;SDS011;3293;51.690;5.982;2024-01-11T08:31:29;38.30;;;21.77;;
6519;SDS011;3293;51.690;5.982;2024-01-11T08:36:32;38.43;;;20.70;;
6519;SDS011;3293;51.690;5.982;2024-01-11T08:41:33;40.60;;;19.60;;
6519;SDS011;3293;51.690;5.982;2024-01-11T08:46:34;32.60;;;18.93;;
6519;SDS011;3293;51.690;5.982;2024-01-11T08:51:34;33.97;;;19.97;;
6519;SDS011;3293;51.690;5.982;2024-01-11T08:56:34;33.30;;;20.83;;
6519;SDS011;3293;51.690;5.982;2024-01-11T09:01:35;32.80;;;19.57;;
6519;SDS011;3293;51.690;5.982;2024-01-11T09:06:35;36.97;;;19.53;;
6519;SDS011;3293;51.690;5.982;2024-01-11T09:11:35;40.17;;;21.67;;
6519;SDS011;3293;51.690;5.982;2024-01-11T09:16:36;33.43;;;19.67;;
6519;SDS011;3293;51.690;5.982;2024-01-11T09:21:36;36.67;;;20.90;;
6519;SDS011;3293;51.690;5.982;2024-01-11T09:26:36;34.07;;;20.90;;
6519;SDS011;3293;51.690;5.982;2024-01-11T09:31:36;34.83;;;20.80;;
6519;SDS011;3293;51.690;5.982;2024-01-11T09:36:36;31.20;;;21.13;;
6519;SDS011;3293;51.690;5.982;2024-01-11T09:41:38;35.87;;;21.23;;
6519;SDS011;3293;51.690;5.982;2024-01-11T09:46:46;31.70;;;20.70;;
6519;SDS011;3293;51.690;5.982;2024-01-11T09:51:46;36.20;;;20.63;;
6519;SDS011;3293;51.690;5.982;2024-01-11T09:56:48;34.07;;;20.97;;
6519;SDS011;3293;51.690;5.982;2024-01-11T10:01:53;40.17;;;21.70;;
6519;SDS011;3293;51.690;5.982;2024-01-11T10:06:53;33.90;;;20.63;;
6519;SDS011;3293;51.690;5.982;2024-01-11T10:11:54;38.33;;;21.83;;
6519;SDS011;3293;51.690;5.982;2024-01-11T10:16:55;33.23;;;20.57;;
6519;SDS011;3293;51.690;5.982;2024-01-11T10:21:54;39.17;;;21.90;;
6519;SDS011;3293;51.690;5.982;2024-01-11T10:26:58;36.23;;;21.07;;
6519;SDS011;3293;51.690;5.982;2024-01-11T10:32:03;40.57;;;21.37;;
6519;SDS011;3293;51.690;5.982;2024-01-11T10:37:03;39.00;;;21.73;;
6519;SDS011;3293;51.690;5.982;2024-01-11T10:47:04;38.60;;;21.83;;
6519;SDS011;3293;51.690;5.982;2024-01-11T10:52:07;32.87;;;22.23;;
6519;SDS011;3293;51.690;5.982;2024-01-11T10:57:08;33.67;;;20.23;;
6519;SDS011;3293;51.690;5.982;2024-01-11T11:02:09;34.23;;;21.27;;
6519;SDS011;3293;51.690;5.982;2024-01-11T11:07:11;34.67;;;20.50;;
6519;SDS011;3293;51.690;5.982;2024-01-11T11:12:13;38.53;;;21.27;;
6519;SDS011;3293;51.690;5.982;2024-01-11T11:17:15;37.13;;;19.83;;
6519;SDS011;3293;51.690;5.982;2024-01-11T11:22:15;37.93;;;20.10;;
6519;SDS011;3293;51.690;5.982;2024-01-11T11:27:16;36.03;;;19.50;;
6519;SDS011;3293;51.690;5.982;2024-01-11T11:32:16;35.93;;;20.30;;
6519;SDS011;3293;51.690;5.982;2024-01-11T11:37:22;36.17;;;19.80;;
6519;SDS011;3293;51.690;5.982;2024-01-11T11:42:23;32.43;;;18.97;;
6519;SDS011;3293;51.690;5.982;2024-01-11T11:47:24;33.43;;;19.23;;
6519;SDS011;3293;51.690;5.982;2024-01-11T11:52:32;32.17;;;19.53;;
6519;SDS011;3293;51.690;5.982;2024-01-11T11:57:37;31.57;;;18.93;;
6519;SDS011;3293;51.690;5.982;2024-01-11T12:02:37;36.03;;;19.90;;
6519;SDS011;3293;51.690;5.982;2024-01-11T12:07:38;36.83;;;21.53;;
6519;SDS011;3293;51.690;5.982;2024-01-11T12:12:40;32.20;;;20.17;;
6519;SDS011;3293;51.690;5.982;2024-01-11T12:17:40;34.83;;;20.50;;
6519;SDS011;3293;51.690;5.982;2024-01-11T12:22:43;40.63;;;21.20;;
6519;SDS011;3293;51.690;5.982;2024-01-11T12:27:45;37.00;;;20.70;;
6519;SDS011;3293;51.690;5.982;2024-01-11T12:32:45;26.00;;;17.07;;
6519;SDS011;3293;51.690;5.982;2024-01-11T12:37:59;18.67;;;11.60;;
6519;SDS011;3293;51.690;5.982;2024-01-11T12:43:01;16.20;;;9.80;;
6519;SDS011;3293;51.690;5.982;2024-01-11T12:48:03;18.47;;;10.87;;
6519;SDS011;3293;51.690;5.982;2024-01-11T12:53:09;17.83;;;10.10;;
6519;SDS011;3293;51.690;5.982;2024-01-11T12:58:21;20.57;;;9.50;;
6519;SDS011;3293;51.690;5.982;2024-01-11T13:03:26;19.73;;;10.30;;
6519;SDS011;3293;51.690;5.982;2024-01-11T13:08:28;29.17;;;10.00;;
6519;SDS011;3293;51.690;5.982;2024-01-11T13:13:28;19.77;;;10.20;;
6519;SDS011;3293;51.690;5.982;2024-01-11T13:18:29;19.33;;;9.97;;
6519;SDS011;3293;51.690;5.982;2024-01-11T13:23:30;20.93;;;10.63;;
6519;SDS011;3293;51.690;5.982;2024-01-11T13:28:30;17.03;;;9.80;;
6519;SDS011;3293;51.690;5.982;2024-01-11T13:33:30;19.00;;;9.93;;
6519;SDS011;3293;51.690;5.982;2024-01-11T13:38:30;17.90;;;9.70;;
6519;SDS011;3293;51.690;5.982;2024-01-11T13:43:30;19.87;;;10.60;;
6519;SDS011;3293;51.690;5.982;2024-01-11T13:48:31;19.43;;;11.17;;
6519;SDS011;3293;51.690;5.982;2024-01-11T13:53:31;18.33;;;9.60;;
6519;SDS011;3293;51.690;5.982;2024-01-11T13:58:31;21.40;;;10.50;;
6519;SDS011;3293;51.690;5.982;2024-01-11T14:03:31;20.37;;;10.37;;
6519;SDS011;3293;51.690;5.982;2024-01-11T14:08:31;18.60;;;10.23;;
6519;SDS011;3293;51.690;5.982;2024-01-11T14:13:31;21.37;;;9.70;;
6519;SDS011;3293;51.690;5.982;2024-01-11T14:18:30;17.60;;;9.50;;
6519;SDS011;3293;51.690;5.982;2024-01-11T14:23:30;19.57;;;10.00;;
6519;SDS011;3293;51.690;5.982;2024-01-11T14:28:31;19.73;;;10.10;;
6519;SDS011;3293;51.690;5.982;2024-01-11T14:33:30;22.90;;;10.20;;
6519;SDS011;3293;51.690;5.982;2024-01-11T14:38:30;21.50;;;11.03;;
6519;SDS011;3293;51.690;5.982;2024-01-11T14:43:30;22.97;;;10.53;;
6519;SDS011;3293;51.690;5.982;2024-01-11T14:48:30;18.37;;;10.80;;
6519;SDS011;3293;51.690;5.982;2024-01-11T14:53:30;21.20;;;10.83;;
6519;SDS011;3293;51.690;5.982;2024-01-11T14:58:30;24.30;;;12.07;;
6519;SDS011;3293;51.690;5.982;2024-01-11T15:03:31;24.33;;;12.07;;
6519;SDS011;3293;51.690;5.982;2024-01-11T15:08:30;23.17;;;12.33;;
6519;SDS011;3293;51.690;5.982;2024-01-11T15:13:31;22.60;;;11.80;;
6519;SDS011;3293;51.690;5.982;2024-01-11T15:18:31;23.60;;;11.47;;
6519;SDS011;3293;51.690;5.982;2024-01-11T15:23:31;25.23;;;13.00;;
6519;SDS011;3293;51.690;5.982;2024-01-11T15:28:31;23.30;;;11.73;;
6519;SDS011;3293;51.690;5.982;2024-01-11T15:33:31;25.80;;;12.23;;
6519;SDS011;3293;51.690;5.982;2024-01-11T15:38:31;28.73;;;14.30;;
6519;SDS011;3293;51.690;5.982;2024-01-11T15:43:31;32.10;;;13.43;;
6519;SDS011;3293;51.690;5.982;2024-01-11T15:48:31;24.70;;;11.47;;
6519;SDS011;3293;51.690;5.982;2024-01-11T15:53:31;32.93;;;14.47;;
6519;SDS011;3293;51.690;5.982;2024-01-11T15:58:30;31.70;;;14.50;;
6519;SDS011;3293;51.690;5.982;2024-01-11T16:03:30;26.53;;;12.60;;
6519;SDS011;3293;51.690;5.982;2024-01-11T16:08:30;29.77;;;13.93;;
6519;SDS011;3293;51.690;5.982;2024-01-11T16:13:30;30.70;;;14.73;;
6519;SDS011;3293;51.690;5.982;2024-01-11T16:18:32;32.13;;;15.13;;
6519;SDS011;3293;51.690;5.982;2024-01-11T16:23:34;29.00;;;13.43;;
6519;SDS011;3293;51.690;5.982;2024-01-11T16:28:33;36.77;;;16.53;;
6519;SDS011;3293;51.690;5.982;2024-01-11T16:33:33;33.70;;;15.00;;
6519;SDS011;3293;51.690;5.982;2024-01-11T16:38:33;32.13;;;14.03;;
6519;SDS011;3293;51.690;5.982;2024-01-11T16:43:33;30.20;;;14.80;;
6519;SDS011;3293;51.690;5.982;2024-01-11T16:48:34;44.90;;;18.40;;
6519;SDS011;3293;51.690;5.982;2024-01-11T16:53:34;43.23;;;17.80;;
6519;SDS011;3293;51.690;5.982;2024-01-11T16:58:34;39.27;;;17.37;;
6519;SDS011;3293;51.690;5.982;2024-01-11T17:03:34;31.93;;;14.63;;
6519;SDS011;3293;51.690;5.982;2024-01-11T17:08:34;41.17;;;17.50;;
6519;SDS011;3293;51.690;5.982;2024-01-11T17:13:34;35.73;;;17.33;;
6519;SDS011;3293;51.690;5.982;2024-01-11T17:18:34;44.47;;;17.93;;
6519;SDS011;3293;51.690;5.982;2024-01-11T17:23:34;37.67;;;17.37;;
6519;SDS011;3293;51.690;5.982;2024-01-11T17:28:34;39.37;;;17.27;;
6519;SDS011;3293;51.690;5.982;2024-01-11T17:33:34;37.10;;;18.30;;
6519;SDS011;3293;51.690;5.982;2024-01-11T17:38:34;35.50;;;17.10;;
6519;SDS011;3293;51.690;5.982;2024-01-11T17:43:34;35.73;;;15.37;;
6519;SDS011;3293;51.690;5.982;2024-01-11T17:48:35;44.07;;;16.80;;
6519;SDS011;3293;51.690;5.982;2024-01-11T17:53:37;29.57;;;14.53;;
6519;SDS011;3293;51.690;5.982;2024-01-11T17:58:37;43.53;;;19.03;;
6519;SDS011;3293;51.690;5.982;2024-01-11T18:03:36;43.77;;;18.73;;
6519;SDS011;3293;51.690;5.982;2024-01-11T18:08:36;39.93;;;16.97;;
6519;SDS011;3293;51.690;5.982;2024-01-11T18:13:37;44.13;;;16.93;;
6519;SDS011;3293;51.690;5.982;2024-01-11T18:18:37;44.27;;;18.50;;
6519;SDS011;3293;51.690;5.982;2024-01-11T18:23:37;43.50;;;19.10;;
6519;SDS011;3293;51.690;5.982;2024-01-11T18:28:37;43.10;;;17.10;;
6519;SDS011;3293;51.690;5.982;2024-01-11T18:33:37;41.57;;;18.40;;
6519;SDS011;3293;51.690;5.982;2024-01-11T18:38:36;46.83;;;18.73;;
6519;SDS011;3293;51.690;5.982;2024-01-11T18:43:36;49.53;;;19.20;;
6519;SDS011;3293;51.690;5.982;2024-01-11T18:48:36;50.37;;;21.13;;
6519;SDS011;3293;51.690;5.982;2024-01-11T18:53:36;46.13;;;19.43;;
6519;SDS011;3293;51.690;5.982;2024-01-11T18:58:37;47.07;;;18.93;;
6519;SDS011;3293;51.690;5.982;2024-01-11T19:03:37;44.20;;;20.10;;
6519;SDS011;3293;51.690;5.982;2024-01-11T19:08:38;45.03;;;19.80;;
6519;SDS011;3293;51.690;5.982;2024-01-11T19:13:38;43.07;;;18.70;;
6519;SDS011;3293;51.690;5.982;2024-01-11T19:18:37;51.87;;;20.33;;
6519;SDS011;3293;51.690;5.982;2024-01-11T19:23:37;48.63;;;18.87;;
6519;SDS011;3293;51.690;5.982;2024-01-11T19:28:37;40.80;;;18.53;;
6519;SDS011;3293;51.690;5.982;2024-01-11T19:33:37;48.23;;;20.67;;
6519;SDS011;3293;51.690;5.982;2024-01-11T19:38:37;48.03;;;19.93;;
6519;SDS011;3293;51.690;5.982;2024-01-11T19:43:38;47.90;;;19.97;;
6519;SDS011;3293;51.690;5.982;2024-01-11T19:48:44;44.27;;;19.87;;
6519;SDS011;3293;51.690;5.982;2024-01-11T19:53:45;51.30;;;18.77;;
6519;SDS011;3293;51.690;5.982;2024-01-11T19:58:45;43.13;;;20.13;;
6519;SDS011;3293;51.690;5.982;2024-01-11T20:03:45;49.20;;;18.67;;
6519;SDS011;3293;51.690;5.982;2024-01-11T20:08:45;51.77;;;21.87;;
6519;SDS011;3293;51.690;5.982;2024-01-11T20:13:45;49.30;;;20.50;;
6519;SDS011;3293;51.690;5.982;2024-01-11T20:18:45;47.07;;;18.33;;
6519;SDS011;3293;51.690;5.982;2024-01-11T20:23:46;51.37;;;19.97;;
6519;SDS011;3293;51.690;5.982;2024-01-11T20:28:45;52.27;;;19.70;;
6519;SDS011;3293;51.690;5.982;2024-01-11T20:33:46;56.67;;;21.70;;
6519;SDS011;3293;51.690;5.982;2024-01-11T20:38:45;48.53;;;21.20;;
6519;SDS011;3293;51.690;5.982;2024-01-11T20:43:46;52.17;;;21.23;;
6519;SDS011;3293;51.690;5.982;2024-01-11T20:48:47;57.67;;;22.13;;
6519;SDS011;3293;51.690;5.982;2024-01-11T20:53:47;55.40;;;21.67;;
6519;SDS011;3293;51.690;5.982;2024-01-11T20:58:48;50.87;;;22.07;;
6519;SDS011;3293;51.690;5.982;2024-01-11T21:03:49;53.60;;;23.17;;
6519;SDS011;3293;51.690;5.982;2024-01-11T21:08:49;55.00;;;22.23;;
6519;SDS011;3293;51.690;5.982;2024-01-11T21:13:49;51.67;;;23.40;;
6519;SDS011;3293;51.690;5.982;2024-01-11T21:18:50;57.80;;;23.23;;
6519;SDS011;3293;51.690;5.982;2024-01-11T21:23:52;47.57;;;21.03;;
6519;SDS011;3293;51.690;5.982;2024-01-11T21:28:56;58.47;;;23.40;;
6519;SDS011;3293;51.690;5.982;2024-01-11T21:33:58;58.63;;;23.23;;
6519;SDS011;3293;51.690;5.982;2024-01-11T21:39:03;51.40;;;21.50;;
6519;SDS011;3293;51.690;5.982;2024-01-11T21:44:02;66.53;;;23.53;;
6519;SDS011;3293;51.690;5.982;2024-01-11T21:49:03;54.87;;;23.00;;
6519;SDS011;3293;51.690;5.982;2024-01-11T21:54:03;51.50;;;21.77;;
6519;SDS011;3293;51.690;5.982;2024-01-11T21:59:03;62.63;;;24.47;;
6519;SDS011;3293;51.690;5.982;2024-01-11T22:04:03;50.37;;;21.83;;
6519;SDS011;3293;51.690;5.982;2024-01-11T22:09:05;56.00;;;22.70;;
6519;SDS011;3293;51.690;5.982;2024-01-11T22:14:04;52.23;;;22.93;;
6519;SDS011;3293;51.690;5.982;2024-01-11T22:19:05;52.40;;;21.83;;
6519;SDS011;3293;51.690;5.982;2024-01-11T22:24:06;58.37;;;23.93;;
6519;SDS011;3293;51.690;5.982;2024-01-11T22:29:06;62.57;;;24.53;;
6519;SDS011;3293;51.690;5.982;2024-01-11T22:34:06;52.97;;;21.03;;
6519;SDS011;3293;51.690;5.982;2024-01-11T22:39:07;63.53;;;24.77;;
6519;SDS011;3293;51.690;5.982;2024-01-11T22:44:07;52.97;;;23.03;;
6519;SDS011;3293;51.690;5.982;2024-01-11T22:49:07;51.13;;;23.17;;
6519;SDS011;3293;51.690;5.982;2024-01-11T22:54:07;49.90;;;21.30;;
6519;SDS011;3293;51.690;5.982;2024-01-11T22:59:07;52.23;;;21.77;;
6519;SDS011;3293;51.690;5.982;2024-01-11T23:04:08;56.17;;;23.93;;
6519;SDS011;3293;51.690;5.982;2024-01-11T23:09:09;44.70;;;20.63;;
6519;SDS011;3293;51.690;5.982;2024-01-11T23:14:11;59.03;;;24.90;;
6519;SDS011;3293;51.690;5.982;2024-01-11T23:19:18;63.40;;;23.77;;
6519;SDS011;3293;51.690;5.982;2024-01-11T23:24:18;52.87;;;23.33;;
6519;SDS011;3293;51.690;5.982;2024-01-11T23:29:18;52.57;;;21.50;;
6519;SDS011;3293;51.690;5.982;2024-01-11T23:34:17;53.47;;;22.73;;
6519;SDS011;3293;51.690;5.982;2024-01-11T23:39:17;44.80;;;21.37;;
6519;SDS011;3293;51.690;5.982;2024-01-11T23:44:17;56.97;;;24.03;;
6519;SDS011;3293;51.690;5.982;2024-01-11T23:49:18;50.60;;;22.47;;
6519;SDS011;3293;51.690;5.982;2024-01-11T23:54:18;51.20;;;22.27;;
6519;SDS011;3293;51.690;5.982;2024-01-11T23:59:17;52.93;;;22.23;;
